Time;durP1;ratioP1;P1;durP2;ratioP2;P2;SDS_P1;SDS_P2;PMS_P1;PMS_P2;Temp;Humidity;BMP_temperature;BMP_pressure;BME280_temperature;BME280_humidity;BME280_pressure;Samples;Min_cycle;Max_cycle;Signal;HPM_P1;HPM_P2
2022/01/18 05:14:39;;;;;;;6.32;0.93;;;;;;;5.97;81.94;102463.00;5102969;27;20066;-95
2022/01/18 05:48:41;;;;;;;6.18;0.82;;;;;;;6.09;80.15;102499.00;5077278;28;20048;-95
2022/01/18 05:51:10;;;;;;;5.03;0.93;;;;;;;6.07;79.71;102491.97;5079079;28;20048;-94
2022/01/18 05:53:40;;;;;;;5.68;1.25;;;;;;;5.83;78.85;102448.84;5078253;28;20049;-94
2022/01/18 06:03:49;;;;;;;;;;;;;;;;;;;;;
2022/01/18 06:07:03;;;;;;;5.85;0.98;;;;;;;6.15;79.02;102503.38;5023217;28;20049;-95
2022/01/18 06:14:17;;;;;;;7.22;1.20;;;;;;;6.14;79.35;102501.66;5020771;28;20049;-95
2022/01/18 06:46:04;;;;;;;6.97;2.47;;;;;;;6.18;80.39;102509.56;5091380;27;20062;-93
2022/01/18 06:48:31;;;;;;;5.80;1.70;;;;;;;6.08;80.32;102497.25;5057619;28;20063;-93
2022/01/18 06:51:01;;;;;;;4.45;1.95;;;;;;;6.08;80.74;102499.88;5058792;28;20500;-96
2022/01/18 06:53:35;;;;;;;7.60;2.10;;;;;;;5.91;80.82;102462.97;5060873;28;20057;-91
2022/01/18 06:56:05;;;;;;;6.18;2.25;;;;;;;6.01;79.92;102470.88;5058597;28;20118;-93
2022/01/18 06:58:31;;;;;;;7.57;2.30;;;;;;;6.25;80.50;102531.53;5054835;28;20047;-93
2022/01/18 07:00:58;;;;;;;8.10;2.55;;;;;;;6.16;80.42;102528.81;5056518;28;20055;-93
2022/01/18 07:03:26;;;;;;;12.40;2.80;;;;;;;6.12;81.25;102519.19;5050358;28;20148;-91
2022/01/18 07:05:53;;;;;;;10.02;3.08;;;;;;;6.19;81.09;102542.00;5065291;28;20059;-92
2022/01/18 07:08:20;;;;;;;7.00;3.33;;;;;;;6.14;81.70;102547.22;5066264;28;20083;-92
2022/01/18 07:10:50;;;;;;;8.57;3.78;;;;;;;6.05;81.88;102543.69;5062832;28;20051;-92
2022/01/18 07:13:19;;;;;;;12.32;4.93;;;;;;;5.94;82.60;102531.34;5060990;28;20472;-91
2022/01/18 07:15:47;;;;;;;13.35;4.93;;;;;;;5.97;83.29;102539.28;5058249;28;20041;-92
2022/01/18 07:18:14;;;;;;;12.07;4.53;;;;;;;5.97;83.91;102554.16;5065924;28;20127;-92
2022/01/18 07:20:42;;;;;;;14.25;5.55;;;;;;;5.97;84.62;102552.41;5061069;28;20114;-91
2022/01/18 07:23:12;;;;;;;13.80;5.72;;;;;;;5.89;85.15;102525.19;5062154;28;20068;-92
2022/01/18 07:25:43;;;;;;;13.75;6.05;;;;;;;5.81;85.04;102516.34;5061920;28;20556;-92
2022/01/18 07:28:11;;;;;;;12.73;6.55;;;;;;;5.74;85.23;102497.88;5060764;28;20147;-92
2022/01/18 07:30:39;;;;;;;16.45;8.20;;;;;;;5.89;85.63;102519.03;5063113;28;20382;-92
2022/01/18 07:33:19;;;;;;;23.73;10.35;;;;;;;5.89;86.23;102527.81;5066916;28;20072;-93
2022/01/18 07:36:10;;;;;;;19.15;9.68;;;;;;;5.88;86.94;102533.94;5063236;28;20051;-93
2022/01/18 07:38:50;;;;;;;;;;;;;;;5.96;87.74;102547.16;5067936;28;20136;-91
2022/01/18 07:41:17;;;;;;;23.38;11.77;;;;;;;5.88;88.50;102539.19;5069486;28;20375;-92
2022/01/18 07:43:46;;;;;;;24.48;12.30;;;;;;;5.89;88.41;102540.94;5049664;28;20045;-95
2022/01/18 07:46:14;;;;;;;20.60;12.00;;;;;;;5.85;88.76;102538.25;5062464;28;20060;-94
2022/01/18 07:48:43;;;;;;;21.00;12.65;;;;;;;5.97;89.54;102565.56;5065092;28;20041;-93
2022/01/18 07:51:13;;;;;;;24.77;13.93;;;;;;;5.84;90.21;102536.50;5062676;28;20903;-92
2022/01/18 07:53:41;;;;;;;26.13;13.57;;;;;;;5.79;90.27;102517.19;5068489;28;20487;-92
2022/01/18 07:56:08;;;;;;;24.00;12.93;;;;;;;5.89;89.90;102546.22;5063202;28;20049;-93
2022/01/18 07:58:35;;;;;;;26.45;14.15;;;;;;;5.82;90.33;102538.25;5141645;23;20136;-93
2022/01/18 08:01:02;;;;;;;28.35;14.43;;;;;;;5.71;90.84;102511.88;5024208;28;20602;-91
2022/01/18 08:03:29;;;;;;;28.50;14.20;;;;;;;5.99;90.48;102566.44;5048090;28;20051;-92
2022/01/18 08:05:59;;;;;;;24.85;14.43;;;;;;;5.80;90.86;102538.25;5047413;28;20055;-91
2022/01/18 08:08:27;;;;;;;26.17;14.30;;;;;;;6.01;91.39;102568.19;5045498;28;20049;-92
2022/01/18 08:10:55;;;;;;;29.95;15.25;;;;;;;5.96;91.32;102555.03;5046109;28;20140;-92
2022/01/18 08:13:33;;;;;;;27.08;14.75;;;;;;;5.94;90.79;102556.78;5033644;28;20052;-94
2022/01/18 08:16:23;;;;;;;27.48;14.85;;;;;;;5.87;91.28;102537.41;5055891;28;20415;-93
2022/01/18 08:18:57;;;;;;;28.10;15.00;;;;;;;5.75;91.36;102518.91;5042147;28;20045;-94
2022/01/18 08:21:43;;;;;;;25.25;14.20;;;;;;;5.82;91.42;102507.59;5065245;28;20051;-92
2022/01/18 08:24:26;;;;;;;26.60;14.05;;;;;;;5.84;90.93;102511.06;5060553;28;20045;-92
2022/01/18 08:26:54;;;;;;;27.42;14.68;;;;;;;5.87;90.95;102519.00;5065697;28;20052;-92
2022/01/18 08:29:25;;;;;;;;;;;;;;;6.24;91.37;102583.25;5059843;28;20485;-91
2022/01/18 08:32:17;;;;;;;24.77;13.88;;;;;;;6.16;91.47;102563.91;5065731;28;19924;-92
2022/01/18 08:40:44;;;;;;;30.30;14.60;;;;;;;6.56;90.00;102572.88;3011807;22;20460;-91
2022/01/18 08:43:14;;;;;;;27.15;14.40;;;;;;;6.46;89.73;102554.41;5036582;28;20057;-92
2022/01/18 08:45:41;;;;;;;28.10;14.82;;;;;;;6.58;89.55;102581.69;5041930;28;20045;-93
2022/01/18 08:48:08;;;;;;;26.08;14.70;;;;;;;6.62;89.66;102572.00;5051844;28;20044;-92
2022/01/18 08:50:38;;;;;;;24.65;13.40;;;;;;;6.66;88.34;102561.50;5026175;28;20060;-92
2022/01/18 08:53:10;;;;;;;26.23;14.05;;;;;;;6.50;87.58;102532.50;5044505;28;20094;-91
2022/01/18 08:55:37;;;;;;;22.98;12.63;;;;;;;6.98;88.45;102592.34;5043027;28;20048;-93
2022/01/18 08:58:04;;;;;;;19.58;10.98;;;;;;;6.90;87.11;102573.00;5041554;28;20080;-93
2022/01/18 09:00:34;;;;;;;22.23;11.25;;;;;;;6.66;85.61;102515.88;5042945;28;20044;-93
2022/01/18 09:03:04;;;;;;;21.70;12.48;;;;;;;7.04;85.42;102587.09;5039895;28;20052;-92
2022/01/18 09:05:32;;;;;;;23.70;11.68;;;;;;;6.84;85.82;102554.56;5039597;28;20049;-93
2022/01/18 09:08:29;;;;;;;21.85;11.70;;;;;;;6.87;85.12;102559.84;5046656;28;20164;-93
2022/01/18 09:10:56;;;;;;;26.00;11.82;;;;;;;6.84;85.11;102559.81;5041219;28;20057;-92
2022/01/18 09:13:31;;;;;;;22.48;11.73;;;;;;;7.06;85.18;102585.34;5043224;28;20053;-92
2022/01/18 09:15:59;;;;;;;21.90;10.35;;;;;;;6.82;85.06;102544.00;5022554;28;20052;-93
2022/01/18 09:18:29;;;;;;;19.65;11.05;;;;;;;6.96;84.33;102547.56;5035210;28;20048;-94
2022/01/18 09:20:55;;;;;;;23.17;11.27;;;;;;;6.99;83.41;102546.69;5039439;28;20129;-92
2022/01/18 09:23:22;;;;;;;20.48;10.20;;;;;;;7.17;84.05;102580.09;5042859;28;20048;-94
2022/01/18 09:25:51;;;;;;;17.85;9.82;;;;;;;7.32;83.75;102580.13;5019204;28;20052;-93
2022/01/18 09:28:18;;;;;;;19.98;9.82;;;;;;;7.19;82.91;102549.34;5044026;28;20515;-93
2022/01/18 09:30:46;;;;;;;20.60;11.27;;;;;;;7.44;82.88;102592.41;5040471;28;20076;-93
2022/01/18 09:33:14;;;;;;;20.92;12.13;;;;;;;7.26;82.16;102562.53;5041839;28;20052;-93
2022/01/18 09:35:44;;;;;;;19.70;11.50;;;;;;;7.19;82.43;102566.06;5040404;28;20627;-95
2022/01/18 09:38:39;;;;;;;;;;;;;;;;;;;;;
2022/01/18 09:41:17;;;;;;;18.50;10.48;;;;;;;7.29;81.75;102562.53;5059589;28;20521;-93
2022/01/18 09:43:49;;;;;;;18.63;11.10;;;;;;;7.30;81.44;102556.38;5060302;28;20067;-93
2022/01/18 09:46:18;;;;;;;20.88;11.68;;;;;;;7.67;81.39;102614.41;5058364;28;20056;-93
2022/01/18 09:48:57;;;;;;;22.55;12.70;;;;;;;7.62;81.53;102600.34;5066887;28;20135;-93
2022/01/18 09:51:25;;;;;;;18.25;10.30;;;;;;;7.69;81.53;102613.53;5064275;28;20055;-94
2022/01/18 09:53:52;;;;;;;16.60;9.48;;;;;;;7.62;80.31;102602.97;5067870;28;20060;-93
2022/01/18 09:56:22;;;;;;;17.30;9.60;;;;;;;7.74;80.43;102608.25;5062798;28;20048;-93
2022/01/18 09:58:50;;;;;;;19.00;10.45;;;;;;;7.86;79.23;102615.31;5083982;28;20048;-93
2022/01/18 10:01:19;;;;;;;12.02;7.47;;;;;;;7.86;78.73;102597.72;5080060;28;20036;-94
2022/01/18 10:03:48;;;;;;;12.73;7.07;;;;;;;7.99;77.47;102583.63;5077706;28;20055;-94
2022/01/18 10:06:17;;;;;;;14.85;8.48;;;;;;;8.25;76.29;102601.16;5066588;28;20430;-94
2022/01/18 10:08:50;;;;;;;14.38;8.13;;;;;;;8.38;76.20;102618.75;5067454;28;20052;-93
2022/01/18 10:11:20;;;;;;;15.02;7.22;;;;;;;8.09;75.38;102558.09;5075371;28;20052;-93
2022/01/18 10:13:49;;;;;;;13.02;6.70;;;;;;;8.27;75.44;102578.28;5071500;28;20579;-93
2022/01/18 10:16:28;;;;;;;13.68;7.13;;;;;;;8.24;74.33;102567.72;5066493;28;20362;-93
2022/01/18 10:19:07;;;;;;;17.90;9.20;;;;;;;8.16;75.28;102545.78;5070779;28;20048;-93
2022/01/18 10:21:46;;;;;;;12.73;7.18;;;;;;;8.10;74.74;102550.19;5054493;28;20048;-94
2022/01/18 10:24:34;;;;;;;14.43;7.97;;;;;;;8.11;74.93;102569.53;5068725;28;20056;-92
2022/01/18 10:27:05;;;;;;;13.48;6.47;;;;;;;8.14;74.73;102572.16;5050292;28;20056;-94
2022/01/18 10:29:39;;;;;;;13.48;6.85;;;;;;;8.22;74.32;102593.25;5068698;28;20838;-93
2022/01/18 10:32:20;;;;;;;12.50;6.60;;;;;;;8.12;74.19;102579.19;5062081;28;20114;-92
2022/01/18 10:37:25;;;;;;;9.90;4.70;;;;;;;8.08;74.29;102583.59;5060409;28;20044;-92
2022/01/18 10:40:06;;;;;;;7.07;4.57;;;;;;;8.10;74.68;102588.88;5069652;28;20059;-95
2022/01/18 10:42:46;;;;;;;11.95;5.55;;;;;;;8.12;74.47;102591.53;5065163;28;20049;-91
2022/01/18 10:45:45;;;;;;;12.30;5.72;;;;;;;8.26;74.19;102608.19;5059166;28;20539;-93
2022/01/18 10:48:15;;;;;;;11.63;5.72;;;;;;;8.12;74.71;102566.00;5041828;28;20135;-94
2022/01/18 10:50:46;;;;;;;18.10;6.75;;;;;;;8.14;73.56;102545.78;5061639;28;20525;-93
2022/01/18 10:53:25;;;;;;;11.38;6.40;;;;;;;8.48;73.60;102590.59;5059463;28;20071;-93
2022/01/18 10:56:13;;;;;;;9.10;4.68;;;;;;;8.46;72.31;102589.72;5061955;28;20553;-94
2022/01/18 10:58:55;;;;;;;15.52;5.40;;;;;;;8.42;73.13;102565.06;5065847;28;20728;-92
2022/01/18 11:01:23;;;;;;;10.18;4.07;;;;;;;8.24;72.00;102523.75;5063529;28;20090;-94
2022/01/18 11:04:12;;;;;;;13.63;4.73;;;;;;;8.72;71.52;102591.34;5061908;28;20376;-93
2022/01/18 11:06:42;;;;;;;7.50;3.40;;;;;;;8.50;69.77;102549.22;5052508;28;20065;-95
2022/01/18 11:09:26;;;;;;;6.28;3.40;;;;;;;8.51;71.09;102535.97;5061314;28;20049;-93
2022/01/18 11:11:54;;;;;;;5.15;2.00;;;;;;;8.60;69.59;102541.22;5059494;28;20711;-95
2022/01/18 11:14:26;;;;;;;4.50;2.35;;;;;;;8.50;70.09;102512.25;5059183;28;20045;-92
2022/01/18 11:16:56;;;;;;;7.78;2.50;;;;;;;8.84;69.67;102544.63;5038467;28;20147;-95
2022/01/18 11:19:32;;;;;;;4.45;2.25;;;;;;;8.61;68.66;102505.13;5065309;28;20113;-92
2022/01/18 11:22:07;;;;;;;3.38;1.80;;;;;;;8.79;68.80;102542.91;5060453;28;20059;-93
2022/01/18 11:25:12;;;;;;;4.63;1.85;;;;;;;8.65;69.69;102517.44;5062936;28;20076;-93
2022/01/18 11:27:46;;;;;;;3.05;1.90;;;;;;;8.75;69.29;102535.88;5044839;28;20636;-92
2022/01/18 11:30:35;;;;;;;4.78;1.95;;;;;;;8.85;69.42;102549.03;5064997;28;20079;-93
2022/01/18 11:33:05;;;;;;;4.28;2.10;;;;;;;9.02;69.09;102555.97;5068406;28;20794;-94
2022/01/18 11:36:12;;;;;;;3.85;1.75;;;;;;;9.14;68.70;102566.44;5066455;28;20060;-94
2022/01/18 11:38:42;;;;;;;5.28;2.25;;;;;;;9.13;67.92;102542.66;5060809;28;20045;-93
2022/01/18 11:41:27;;;;;;;4.90;2.20;;;;;;;9.16;67.32;102542.66;5069614;28;20052;-93
2022/01/18 11:43:56;;;;;;;4.32;1.95;;;;;;;9.20;67.80;102549.69;5069476;28;20025;-93
2022/01/18 11:46:34;;;;;;;5.38;2.17;;;;;;;9.07;67.92;102519.81;5063397;28;20049;-95
2022/01/18 11:49:32;;;;;;;4.90;2.28;;;;;;;9.11;67.23;102502.19;5052452;28;20047;-93
2022/01/18 11:52:11;;;;;;;5.30;2.13;;;;;;;9.24;66.78;102511.78;5067749;28;20050;-92
2022/01/18 11:54:57;;;;;;;4.82;2.17;;;;;;;9.29;67.59;102511.72;5046134;28;20048;-95
2022/01/18 11:57:27;;;;;;;2.75;1.70;;;;;;;9.64;67.55;102556.38;5059426;28;20083;-95
2022/01/18 12:00:04;;;;;;;3.63;1.85;;;;;;;9.61;65.49;102524.66;5059344;28;20564;-96
2022/01/18 12:02:40;;;;;;;2.17;1.15;;;;;;;9.62;64.56;102526.41;5065494;28;20059;-93
2022/01/18 12:05:25;;;;;;;1.07;0.70;;;;;;;9.25;63.47;102483.56;5044003;28;20137;-93
2022/01/18 12:08:01;;;;;;;1.67;1.00;;;;;;;9.49;62.40;102517.72;5065975;28;20044;-93
2022/01/18 12:10:43;;;;;;;2.00;0.93;;;;;;;9.41;63.49;102532.78;5048628;28;20490;-93
2022/01/18 12:13:22;;;;;;;1.27;0.65;;;;;;;9.27;63.18;102508.22;5067626;28;20055;-94
2022/01/18 12:15:56;;;;;;;1.00;0.60;;;;;;;9.09;62.49;102480.16;5070874;28;20052;-92
2022/01/18 12:18:29;;;;;;;1.90;0.80;;;;;;;9.07;63.18;102484.59;5063714;28;20131;-90
2022/01/18 12:21:24;;;;;;;2.33;0.63;;;;;;;9.19;63.08;102510.03;5060651;28;20059;-92
2022/01/18 12:23:51;;;;;;;1.48;0.77;;;;;;;9.27;63.96;102534.66;5050658;28;20444;-93
2022/01/18 12:26:40;;;;;;;3.33;0.77;;;;;;;9.02;63.11;102502.22;5070735;28;20052;-92
2022/01/18 12:29:46;;;;;;;;;;;;;;;;;;;;;
2022/01/18 12:32:40;;;;;;;1.80;0.98;;;;;;;9.03;63.19;102514.56;5069954;28;20024;-96
2022/01/18 12:35:22;;;;;;;2.33;0.88;;;;;;;8.90;64.15;102481.19;5053808;28;20055;-91
2022/01/18 12:37:53;;;;;;;3.00;1.23;;;;;;;9.15;63.66;102522.41;5073989;28;20123;-94
2022/01/18 12:40:43;;;;;;;1.45;0.90;;;;;;;9.17;63.33;102517.09;5091991;28;20076;-90
2022/01/18 12:45:49;;;;;;;1.65;0.90;;;;;;;9.06;62.48;102519.84;5093601;28;20078;-91
2022/01/18 12:48:16;;;;;;;1.55;0.75;;;;;;;8.81;63.74;102489.19;5094990;28;20052;-93
2022/01/18 12:50:46;;;;;;;2.55;0.88;;;;;;;8.85;63.74;102493.53;5100509;28;20059;-93
2022/01/18 12:53:20;;;;;;;2.05;0.93;;;;;;;8.89;62.87;102487.34;5098144;28;20098;-91
2022/01/18 12:56:01;;;;;;;1.77;1.20;;;;;;;8.87;63.78;102508.50;5082746;28;20062;-93
2022/01/18 12:58:31;;;;;;;;;;;;;;;8.81;64.50;102500.63;5092831;28;20056;-91
2022/01/18 13:01:02;;;;;;;2.50;0.70;;;;;;;8.61;64.07;102466.41;5101428;28;20342;-90
2022/01/18 13:03:46;;;;;;;4.80;1.30;;;;;;;8.50;64.09;102438.31;5101905;28;20447;-92
2022/01/18 13:06:20;;;;;;;1.63;0.80;;;;;;;8.57;63.84;102443.53;5097602;28;20040;-92
2022/01/18 13:08:49;;;;;;;1.95;0.80;;;;;;;8.89;63.40;102488.22;5096350;28;20552;-92
2022/01/18 13:11:31;;;;;;;1.07;0.80;;;;;;;8.79;63.26;102473.34;5092641;28;20048;-91
2022/01/18 13:14:02;;;;;;;1.73;0.80;;;;;;;8.75;62.85;102474.25;5096124;28;20097;-92
2022/01/18 13:25:13;;;;;;;2.03;1.00;;;;;;;8.84;63.57;102489.13;5062934;28;20411;-95
2022/01/18 13:27:51;;;;;;;1.85;0.90;;;;;;;8.73;63.69;102468.97;5060621;28;20041;-94
2022/01/18 13:30:28;;;;;;;2.17;0.82;;;;;;;8.62;63.28;102454.97;5060870;28;20057;-93
2022/01/18 13:33:00;;;;;;;3.75;0.85;;;;;;;8.60;63.05;102453.22;5053303;28;20049;-93
2022/01/18 13:35:31;;;;;;;1.23;0.70;;;;;;;8.48;63.68;102448.00;5050189;28;20084;-93
2022/01/18 13:38:00;;;;;;;;;;;;;;;8.72;64.09;102488.34;5052179;28;20045;-93
2022/01/18 13:40:30;;;;;;;2.25;0.80;;;;;;;8.67;63.94;102473.41;5053806;28;19993;-93
2022/01/18 13:43:14;;;;;;;2.70;1.00;;;;;;;8.63;63.90;102475.19;5055344;28;20626;-93
2022/01/18 13:45:43;;;;;;;3.22;0.80;;;;;;;8.66;63.60;102477.81;5050665;28;20076;-92
2022/01/18 13:48:13;;;;;;;2.42;0.80;;;;;;;8.37;63.73;102445.41;5051777;28;20048;-91
2022/01/18 13:50:49;;;;;;;1.70;0.82;;;;;;;8.58;63.95;102482.25;5056035;28;20072;-91
2022/01/18 13:53:27;;;;;;;2.13;0.85;;;;;;;8.18;63.93;102412.06;5047601;28;20511;-93
2022/01/18 13:56:07;;;;;;;1.23;0.60;;;;;;;8.31;64.57;102442.78;5052491;28;20052;-94
2022/01/18 13:58:40;;;;;;;3.42;0.50;;;;;;;8.45;64.36;102462.09;5050831;28;20136;-93
2022/01/18 14:01:13;;;;;;;2.42;1.00;;;;;;;8.51;64.19;102483.16;5051934;28;20132;-93
2022/01/18 14:03:46;;;;;;;1.63;1.20;;;;;;;8.23;64.24;102428.72;5053958;28;20057;-92
2022/01/18 14:06:35;;;;;;;1.85;0.85;;;;;;;8.30;63.92;102456.84;5046786;28;20055;-94
2022/01/18 14:09:11;;;;;;;2.38;0.70;;;;;;;8.30;65.05;102472.69;5049330;28;20037;-93
2022/01/18 14:11:39;;;;;;;2.42;0.90;;;;;;;8.20;64.71;102449.84;5051858;28;20586;-93
2022/01/18 14:14:29;;;;;;;2.05;0.85;;;;;;;8.10;65.06;102435.81;5040990;28;20076;-93
2022/01/18 14:17:05;;;;;;;1.95;0.60;;;;;;;8.09;64.84;102437.59;5052287;28;20053;-91
2022/01/18 14:19:52;;;;;;;;;;;;;;;;;;;;;
2022/01/18 14:23:00;;;;;;;3.40;0.60;;;;;;;8.13;65.20;102459.56;5050142;28;20569;-93
2022/01/18 14:25:33;;;;;;;1.52;0.50;;;;;;;8.04;65.36;102456.94;5040704;28;20072;-93
2022/01/18 14:28:17;;;;;;;1.08;0.50;;;;;;;8.19;65.29;102479.75;5050026;28;20045;-94
2022/01/18 14:31:07;;;;;;;2.13;0.50;;;;;;;8.05;65.39;102456.94;5040044;28;20052;-94
2022/01/18 14:33:33;;;;;;;0.98;0.60;;;;;;;7.96;65.13;102440.28;5039923;28;20081;-94
2022/01/18 14:36:18;;;;;;;2.38;0.45;;;;;;;7.88;65.62;102432.38;5034661;28;20049;-93
2022/01/18 14:38:47;;;;;;;0.95;0.47;;;;;;;8.08;66.16;102467.50;5042825;28;20048;-93
2022/01/18 14:41:20;;;;;;;0.40;0.40;;;;;;;8.02;65.97;102445.56;5037625;28;20158;-94
2022/01/18 14:43:52;;;;;;;3.33;0.60;;;;;;;7.99;65.32;102446.44;5040625;28;20053;-93
2022/01/18 14:46:25;;;;;;;1.75;0.70;;;;;;;8.05;66.03;102458.72;5040491;28;20048;-92
2022/01/18 14:48:58;;;;;;;1.20;0.40;;;;;;;7.98;65.41;102439.41;5041634;28;20049;-93
2022/01/18 14:51:27;;;;;;;1.50;0.63;;;;;;;8.08;65.34;102451.66;5041876;28;20131;-94
2022/01/18 14:54:01;;;;;;;1.77;0.40;;;;;;;7.89;65.34;102428.88;5046557;28;20151;-94
2022/01/18 14:56:50;;;;;;;1.33;0.52;;;;;;;7.68;65.37;102390.28;5048694;28;20047;-92
2022/01/18 14:59:18;;;;;;;1.35;0.43;;;;;;;7.84;65.78;102424.50;5040151;28;20061;-93
2022/01/18 15:01:49;;;;;;;1.40;0.30;;;;;;;8.01;65.80;102460.50;5041417;28;20041;-93
2022/01/18 15:04:16;;;;;;;2.67;0.40;;;;;;;7.80;65.99;102428.91;5038671;28;20059;-93
2022/01/18 15:06:42;;;;;;;2.30;0.68;;;;;;;7.60;66.04;102396.44;5038411;28;20049;-94
2022/01/18 15:09:10;;;;;;;0.90;0.30;;;;;;;7.64;65.39;102406.09;5035442;28;20048;-92
2022/01/18 15:11:37;;;;;;;0.40;0.40;;;;;;;7.86;64.67;102436.81;5040644;28;20052;-93
2022/01/18 15:14:08;;;;;;;1.35;0.40;;;;;;;7.78;64.66;102422.75;5043857;28;20052;-94
2022/01/18 15:16:37;;;;;;;;;;;;;;;7.92;65.01;102459.63;5039323;28;20049;-92
2022/01/18 15:19:05;;;;;;;0.63;0.43;;;;;;;7.70;65.56;102424.56;5043141;28;19993;-93
2022/01/18 15:21:41;;;;;;;0.47;0.40;;;;;;;7.60;65.84;102412.25;5039627;28;20099;-93
2022/01/18 15:24:07;;;;;;;1.75;0.45;;;;;;;7.69;65.94;102444.78;5050942;28;20057;-91
2022/01/18 15:26:34;;;;;;;0.73;0.57;;;;;;;7.76;65.93;102453.53;5042865;28;20045;-92
2022/01/18 15:29:02;;;;;;;0.75;0.52;;;;;;;7.68;66.41;102439.50;5059302;28;20044;-93
2022/01/18 15:31:30;;;;;;;0.93;0.40;;;;;;;7.72;65.73;102441.22;5064248;28;20044;-92
2022/01/18 15:34:02;;;;;;;2.95;0.70;;;;;;;7.57;65.81;102428.97;5053569;28;20049;-92
2022/01/18 15:36:29;;;;;;;1.38;0.60;;;;;;;7.54;65.81;102422.84;5046661;28;20048;-92
2022/01/18 15:38:59;;;;;;;2.05;0.50;;;;;;;7.67;66.06;102456.19;5057183;28;20040;-92
2022/01/18 15:41:26;;;;;;;0.98;0.50;;;;;;;7.32;66.46;102412.31;5061588;28;20064;-92
2022/01/18 15:43:53;;;;;;;2.63;0.50;;;;;;;7.54;66.52;102452.72;5058411;28;20083;-92
2022/01/18 15:46:20;;;;;;;1.65;0.57;;;;;;;7.61;66.88;102465.00;5063421;28;20049;-94
2022/01/18 15:49:08;;;;;;;0.93;0.50;;;;;;;7.25;66.70;102393.88;5063946;28;20079;-94
2022/01/18 15:51:37;;;;;;;1.35;0.60;;;;;;;7.34;66.41;102429.00;5065044;28;20126;-92
2022/01/18 15:54:07;;;;;;;1.70;0.57;;;;;;;7.38;66.56;102436.06;5062794;28;20040;-93
2022/01/18 15:56:58;;;;;;;1.83;0.60;;;;;;;7.33;66.91;102431.66;5048951;28;20063;-92
2022/01/18 15:59:43;;;;;;;1.85;0.52;;;;;;;7.20;67.34;102420.25;5058656;28;20041;-93
2022/01/18 16:02:12;;;;;;;2.65;0.80;;;;;;;7.32;67.46;102429.91;5063026;28;20049;-92
2022/01/18 16:04:42;;;;;;;1.67;0.93;;;;;;;7.39;67.53;102445.72;5076580;28;20049;-90
2022/01/18 16:07:10;;;;;;;4.85;1.20;;;;;;;7.34;67.48;102434.28;5077968;28;20065;-93
2022/01/18 16:09:37;;;;;;;1.33;0.80;;;;;;;7.12;67.35;102395.66;5072166;28;20064;-94
2022/01/18 16:12:11;;;;;;;2.25;0.60;;;;;;;7.22;67.68;102407.06;5062132;28;20571;-92
2022/01/18 16:14:54;;;;;;;1.05;0.50;;;;;;;7.27;67.44;102415.84;5058080;28;20106;-95
2022/01/18 16:17:23;;;;;;;2.95;1.00;;;;;;;7.48;67.22;102463.25;5055564;28;20053;-93
2022/01/18 16:19:49;;;;;;;3.85;0.68;;;;;;;7.27;67.74;102429.88;5061731;28;20052;-91
2022/01/18 16:22:18;;;;;;;2.30;0.93;;;;;;;7.45;67.73;102457.97;5060714;28;20087;-93
2022/01/18 16:24:52;;;;;;;2.30;0.80;;;;;;;7.32;67.32;102429.91;5065178;28;20056;-91
2022/01/18 16:27:24;;;;;;;1.77;0.47;;;;;;;7.17;67.79;102408.81;5063138;28;20045;-92
2022/01/18 16:30:01;;;;;;;1.70;0.60;;;;;;;7.17;67.77;102417.63;5068661;28;20048;-92
2022/01/18 17:32:55;;;;;;;1.20;0.63;;;;;;;6.92;67.68;102398.31;5644654;22;20039;-91
2022/01/18 17:43:37;;;;;;;3.17;1.02;;;;;;;6.92;69.13;102439.59;5054406;28;20055;-92
2022/01/18 17:46:06;;;;;;;1.35;0.90;;;;;;;6.69;69.39;102402.69;5054267;28;20041;-93
2022/01/18 17:48:34;;;;;;;2.30;1.23;;;;;;;6.84;69.25;102425.50;5055262;28;20059;-93
2022/01/18 17:51:11;;;;;;;1.80;0.70;;;;;;;6.98;69.15;102444.84;5057321;28;20041;-92
2022/01/18 17:53:40;;;;;;;1.13;0.80;;;;;;;6.62;68.94;102378.09;5056042;28;20063;-94
2022/01/18 17:56:10;;;;;;;2.53;1.48;;;;;;;6.93;69.34;102431.66;5051493;28;20048;-93
2022/01/18 17:59:03;;;;;;;1.52;0.85;;;;;;;6.97;69.33;102432.53;5318648;22;20072;-93
2022/01/18 18:01:35;;;;;;;1.10;0.90;;;;;;;6.77;69.41;102397.44;5069049;28;20407;-93
2022/01/18 18:04:19;;;;;;;2.20;1.13;;;;;;;6.86;69.80;102400.06;5077232;28;20044;-92
2022/01/18 18:07:06;;;;;;;2.38;1.10;;;;;;;6.88;69.51;102393.03;5077571;28;20048;-94
2022/01/18 18:09:37;;;;;;;2.67;1.02;;;;;;;6.79;69.37;102379.84;5075543;28;20058;-91
2022/01/18 18:12:06;;;;;;;1.52;1.10;;;;;;;6.92;69.56;102389.53;5076700;28;20044;-93
2022/01/18 18:14:42;;;;;;;3.17;1.50;;;;;;;7.04;69.48;102414.13;5084460;28;20107;-96
2022/01/18 18:17:09;;;;;;;3.08;1.40;;;;;;;6.66;69.64;102361.44;5068460;28;20032;-91
2022/01/18 18:19:37;;;;;;;2.75;1.30;;;;;;;6.82;70.03;102399.19;5059248;28;20102;-92
2022/01/18 18:22:03;;;;;;;3.05;1.38;;;;;;;7.03;70.67;102427.28;5067257;28;20052;-92
2022/01/18 18:24:30;;;;;;;3.13;1.40;;;;;;;6.71;70.68;102369.34;5060811;28;20051;-93
2022/01/18 18:27:00;;;;;;;5.82;2.80;;;;;;;6.87;70.92;102400.06;5046464;28;20044;-92
2022/01/18 18:29:29;;;;;;;20.55;9.88;;;;;;;6.86;71.31;102400.06;5069011;28;20040;-95
2022/01/18 18:35:53;;;;;;;9.65;5.07;;;;;;;6.75;71.59;102383.38;5139882;22;20057;-93
2022/01/18 18:38:36;;;;;;;6.43;2.95;;;;;;;6.82;72.04;102400.94;5033822;28;20044;-93
2022/01/18 18:41:27;;;;;;;6.30;3.50;;;;;;;6.76;72.50;102390.41;5042181;28;20041;-93
2022/01/18 18:44:22;;;;;;;6.78;3.13;;;;;;;6.62;72.69;102356.16;5044757;28;20046;-93
2022/01/18 18:47:15;;;;;;;5.47;3.15;;;;;;;6.84;72.95;102383.38;5042628;28;20050;-92
2022/01/18 18:49:50;;;;;;;6.53;2.13;;;;;;;6.88;72.64;102379.88;5035150;28;20152;-93
2022/01/18 18:52:20;;;;;;;4.72;2.90;;;;;;;6.82;72.32;102350.91;5038881;28;20118;-93
2022/01/18 18:55:00;;;;;;;;;;;;;;;7.15;70.68;102382.47;5042346;28;20076;-93
2022/01/18 18:57:45;;;;;;;2.47;1.67;;;;;;;6.88;70.51;102330.72;5037948;28;20638;-96
2022/01/18 19:03:24;;;;;;;2.50;1.90;;;;;;;6.90;70.96;102384.28;5042187;28;20041;-93
2022/01/18 19:05:58;;;;;;;7.40;4.85;;;;;;;6.90;70.76;102386.03;5032434;28;20076;-92
2022/01/18 19:08:27;;;;;;;2.60;1.80;;;;;;;6.91;71.27;102404.47;5034956;28;20041;-92
2022/01/18 19:10:56;;;;;;;3.47;2.30;;;;;;;6.88;71.81;102398.31;5040544;28;20117;-94
2022/01/18 19:13:28;;;;;;;2.83;1.87;;;;;;;6.97;72.59;102412.34;5042246;28;20121;-93
2022/01/18 19:15:56;;;;;;;3.58;2.40;;;;;;;6.96;73.52;102422.88;5036204;28;20080;-92
2022/01/18 19:18:24;;;;;;;4.70;1.80;;;;;;;6.84;73.60;102393.91;5028381;28;20052;-92
2022/01/18 19:20:57;;;;;;;3.53;2.13;;;;;;;6.97;74.29;102419.38;5025820;28;20049;-92
2022/01/18 19:23:25;;;;;;;3.72;1.80;;;;;;;6.83;73.59;102386.88;5029858;28;20602;-92
2022/01/18 19:25:53;;;;;;;3.45;1.98;;;;;;;6.89;74.05;102397.44;5032287;28;20140;-91
2022/01/18 19:28:23;;;;;;;4.93;2.53;;;;;;;6.77;74.22;102376.38;5030657;28;20041;-96
2022/01/18 19:30:54;;;;;;;4.80;2.63;;;;;;;6.57;74.52;102348.28;5031432;28;20049;-94
2022/01/18 19:33:26;;;;;;;5.75;2.70;;;;;;;6.73;74.18;102371.97;5028463;28;20053;-93
2022/01/18 19:35:54;;;;;;;;;;;;;;;6.93;74.19;102412.34;5032652;28;20064;-96
2022/01/18 19:38:36;;;;;;;5.55;2.42;;;;;;;6.69;74.27;102369.34;5040325;28;19920;-93
2022/01/18 19:41:05;;;;;;;4.78;2.88;;;;;;;6.66;73.80;102353.53;5031729;28;20046;-92
2022/01/18 19:43:33;;;;;;;3.72;2.42;;;;;;;6.77;73.45;102366.69;5034832;28;20048;-93
2022/01/18 19:46:05;;;;;;;3.65;1.70;;;;;;;6.72;72.59;102363.19;5036504;28;20052;-93
2022/01/18 19:48:34;;;;;;;2.35;1.90;;;;;;;6.56;72.40;102341.25;5034686;28;20136;-92
2022/01/18 19:51:06;;;;;;;;;;;;;;;6.89;72.12;102394.81;5034101;28;20053;-95
2022/01/18 19:53:33;;;;;;;3.80;2.40;;;;;;;6.67;72.19;102351.78;5031892;28;19971;-93
2022/01/18 19:56:00;;;;;;;3.70;2.10;;;;;;;6.65;72.49;102354.41;5014114;28;20060;-92
2022/01/18 19:58:27;;;;;;;3.13;2.03;;;;;;;6.52;72.55;102325.44;5030487;28;20072;-93
2022/01/18 20:00:56;;;;;;;2.42;1.67;;;;;;;6.71;72.48;102360.56;5031359;28;20492;-93
2022/01/18 20:03:26;;;;;;;4.10;1.85;;;;;;;6.52;71.95;102322.81;5027281;28;20045;-93
2022/01/18 20:05:54;;;;;;;2.80;1.75;;;;;;;6.84;72.16;102378.09;5035171;28;20172;-92
2022/01/18 20:08:21;;;;;;;4.07;1.98;;;;;;;6.79;71.75;102364.06;5032536;28;20065;-93
2022/01/18 20:10:50;;;;;;;3.63;2.25;;;;;;;6.71;71.89;102360.56;5017745;28;20057;-93